Time;durP1;ratioP1;P1;durP2;ratioP2;P2;SDS_P1;SDS_P2;PMS_P1;PMS_P2;Temp;Humidity;BMP_temperature;BMP_pressure;BME280_temperature;BME280_humidity;BME280_pressure;Samples;Min_cycle;Max_cycle;Signal;HPM_P1;HPM_P2
2021/03/27 04:13:53;;;;;;;13.00;5.32;;;3.80;99.90;;;;;;5093370;28;20063;-66
2021/03/27 04:16:23;;;;;;;9.80;4.40;;;3.80;99.90;;;;;;5094247;28;20032;-66
2021/03/27 04:19:03;;;;;;;13.75;5.50;;;3.80;99.90;;;;;;5093959;28;20065;-66
2021/03/27 04:21:31;;;;;;;11.88;5.45;;;3.70;99.90;;;;;;5093881;28;20028;-67
2021/03/27 04:24:10;;;;;;;14.05;5.95;;;3.70;99.90;;;;;;5093635;28;20027;-68
2021/03/27 04:26:35;;;;;;;11.15;5.70;;;3.70;99.90;;;;;;5093875;28;20020;-67
2021/03/27 04:29:22;;;;;;;13.68;5.38;;;3.60;99.90;;;;;;5093937;28;20194;-67
2021/03/27 04:32:22;;;;;;;10.23;5.20;;;3.60;99.90;;;;;;5082391;28;20054;-67
2021/03/27 04:34:53;;;;;;;11.38;4.75;;;3.70;99.90;;;;;;5093714;28;20028;-67
2021/03/27 04:37:27;;;;;;;10.43;4.88;;;3.70;99.90;;;;;;5093568;28;20028;-67
2021/03/27 04:40:25;;;;;;;8.88;4.85;;;3.80;99.90;;;;;;5093690;28;20415;-67
2021/03/27 04:43:03;;;;;;;11.10;4.60;;;3.80;99.90;;;;;;5090293;28;20028;-65
2021/03/27 04:45:37;;;;;;;9.00;4.70;;;3.80;99.90;;;;;;5093392;28;20050;-66
2021/03/27 04:48:09;;;;;;;10.63;5.38;;;3.80;99.90;;;;;;5093738;28;20047;-66
2021/03/27 04:50:50;;;;;;;11.13;5.07;;;3.80;99.90;;;;;;5093415;28;20024;-66
2021/03/27 04:53:31;;;;;;;9.80;4.97;;;3.80;99.90;;;;;;5093449;28;20055;-66
2021/03/27 04:56:14;;;;;;;9.10;5.20;;;3.90;99.90;;;;;;5093285;28;20499;-66
2021/03/27 04:59:13;;;;;;;9.10;5.07;;;3.90;99.90;;;;;;5093589;28;20031;-66
2021/03/27 05:01:59;;;;;;;10.32;5.20;;;3.90;99.90;;;;;;5092970;28;20020;-66
2021/03/27 05:04:35;;;;;;;14.45;5.78;;;4.00;99.90;;;;;;5093156;28;20020;-66
2021/03/27 05:07:11;;;;;;;8.23;5.40;;;4.00;99.90;;;;;;5092994;28;20103;-67
2021/03/27 05:10:03;;;;;;;10.43;5.50;;;4.00;99.90;;;;;;5093400;28;20073;-66
2021/03/27 05:12:51;;;;;;;11.80;5.57;;;4.00;99.90;;;;;;5080028;28;20044;-66
2021/03/27 05:15:20;;;;;;;12.25;5.45;;;4.00;99.90;;;;;;5092596;28;20052;-67
2021/03/27 05:17:45;;;;;;;8.80;5.63;;;4.00;99.90;;;;;;5092786;28;20429;-66
2021/03/27 05:20:20;;;;;;;13.88;5.80;;;4.10;99.90;;;;;;5092693;28;20024;-66
2021/03/27 05:23:23;;;;;;;9.85;5.53;;;4.10;99.90;;;;;;5092674;28;20022;-66
2021/03/27 05:26:05;;;;;;;12.20;5.65;;;4.10;99.90;;;;;;5092630;28;20107;-66
2021/03/27 05:28:50;;;;;;;11.98;6.63;;;4.10;99.90;;;;;;5092770;28;20020;-66
2021/03/27 05:31:34;;;;;;;9.30;5.93;;;4.10;99.90;;;;;;5092515;28;20019;-67
2021/03/27 05:34:25;;;;;;;10.95;5.95;;;4.20;99.90;;;;;;5092490;28;20028;-69
2021/03/27 05:37:28;;;;;;;10.88;6.07;;;4.20;99.90;;;;;;5092743;28;20074;-71
2021/03/27 05:40:21;;;;;;;7.40;4.15;;;4.20;99.90;;;;;;5092876;28;20023;-70
2021/03/27 05:42:47;;;;;;;12.93;5.13;;;6.30;99.90;;;;;;5092512;28;20379;-70
2021/03/27 05:45:15;;;;;;;10.10;6.03;;;6.40;99.90;;;;;;5089301;28;20036;-72
2021/03/27 05:48:18;;;;;;;11.10;5.70;;;5.90;99.90;;;;;;5091933;28;20028;-72
2021/03/27 05:51:16;;;;;;;9.93;5.80;;;5.40;99.90;;;;;;5088199;28;20024;-71
2021/03/27 05:54:13;;;;;;;12.25;6.15;;;5.10;99.90;;;;;;5038534;28;20061;-73
2021/03/27 05:56:54;;;;;;;13.75;6.63;;;4.90;99.90;;;;;;5093289;28;20048;-74
2021/03/27 05:59:22;;;;;;;16.23;6.43;;;4.80;99.90;;;;;;5091512;28;20025;-74
2021/03/27 06:02:04;;;;;;;11.65;6.70;;;4.70;99.90;;;;;;5088391;28;20024;-75
2021/03/27 06:04:51;;;;;;;13.23;6.68;;;4.70;99.90;;;;;;5086800;28;20024;-75
2021/03/27 06:07:38;;;;;;;9.18;6.30;;;4.60;99.90;;;;;;5085935;28;20020;-73
2021/03/27 06:10:30;;;;;;;11.43;6.55;;;4.60;99.90;;;;;;5090849;28;20023;-73
2021/03/27 06:13:20;;;;;;;14.70;7.57;;;4.50;99.90;;;;;;5090109;28;20036;-73
2021/03/27 06:16:04;;;;;;;12.30;6.22;;;4.50;99.90;;;;;;5088668;28;20036;-73
2021/03/27 06:18:52;;;;;;;11.38;6.97;;;4.80;99.90;;;;;;5090655;28;20097;-74
2021/03/27 06:21:44;;;;;;;11.73;7.10;;;4.70;99.90;;;;;;5092074;28;20568;-74
2021/03/27 06:24:27;;;;;;;10.15;6.25;;;4.70;99.90;;;;;;5091475;28;20023;-73
2021/03/27 06:27:20;;;;;;;10.70;6.70;;;4.60;99.90;;;;;;5085759;28;20060;-71
2021/03/27 06:30:23;;;;;;;15.38;7.68;;;4.50;99.90;;;;;;5077910;28;20024;-71
2021/03/27 06:33:12;;;;;;;8.43;4.38;;;4.50;99.90;;;;;;5067972;28;20085;-65
2021/03/27 06:36:08;;;;;;;13.18;6.30;;;4.70;99.90;;;;;;5091704;28;20050;-71
2021/03/27 06:38:46;;;;;;;10.05;6.63;;;5.50;99.90;;;;;;5091459;28;20035;-70
2021/03/27 06:41:30;;;;;;;9.98;6.32;;;5.30;99.90;;;;;;5091637;28;20024;-70
2021/03/27 06:44:14;;;;;;;11.52;6.88;;;5.10;99.90;;;;;;5091358;28;20024;-72
2021/03/27 06:47:32;;;;;;;9.93;6.90;;;5.00;99.90;;;;;;5091293;28;20101;-72
2021/03/27 06:50:45;;;;;;;10.75;7.93;;;4.90;99.90;;;;;;5057548;28;20411;-71
2021/03/27 06:53:27;;;;;;;11.88;7.05;;;4.80;99.90;;;;;;5059082;28;20056;-71
2021/03/27 06:56:12;;;;;;;13.02;7.28;;;4.80;99.90;;;;;;5091799;28;20046;-70
2021/03/27 06:59:03;;;;;;;13.85;7.97;;;4.80;99.90;;;;;;5091394;28;20182;-71
2021/03/27 07:01:46;;;;;;;11.27;7.53;;;4.80;99.90;;;;;;5072543;28;20074;-70
2021/03/27 07:04:28;;;;;;;14.85;7.72;;;4.80;99.90;;;;;;5091421;28;20475;-70
2021/03/27 07:07:18;;;;;;;12.88;7.13;;;4.80;99.90;;;;;;5091407;28;20386;-73
2021/03/27 07:10:11;;;;;;;13.23;8.10;;;4.80;99.90;;;;;;5091476;28;20024;-73
2021/03/27 07:13:19;;;;;;;13.88;8.48;;;4.90;99.90;;;;;;5091226;28;20028;-71
2021/03/27 07:15:53;;;;;;;13.48;7.57;;;4.80;99.90;;;;;;5067246;28;20122;-74
2021/03/27 07:18:44;;;;;;;14.70;7.22;;;5.10;99.90;;;;;;5091079;28;20479;-73
2021/03/27 07:21:33;;;;;;;12.77;7.80;;;5.70;99.90;;;;;;5093942;28;20043;-73
2021/03/27 07:24:14;;;;;;;13.65;8.35;;;5.50;99.90;;;;;;5091211;28;20020;-71
2021/03/27 07:27:05;;;;;;;12.82;8.23;;;5.20;99.90;;;;;;5089542;28;20106;-72
2021/03/27 07:29:42;;;;;;;14.48;7.75;;;5.10;99.90;;;;;;5088812;28;20479;-72
2021/03/27 07:32:36;;;;;;;14.27;7.75;;;4.90;99.90;;;;;;5090555;28;20044;-72
2021/03/27 07:35:23;;;;;;;11.82;8.18;;;5.40;99.90;;;;;;5091168;28;20032;-70
2021/03/27 07:38:07;;;;;;;13.50;8.05;;;5.40;99.90;;;;;;5093905;28;20391;-70
2021/03/27 07:40:35;;;;;;;14.95;7.78;;;5.20;99.90;;;;;;5094744;28;20032;-68
2021/03/27 07:43:10;;;;;;;14.90;8.43;;;5.10;99.90;;;;;;5091853;28;21331;-72
2021/03/27 07:46:09;;;;;;;13.38;7.85;;;5.00;99.90;;;;;;5092515;28;20020;-77
2021/03/27 07:49:12;;;;;;;14.77;8.30;;;4.90;99.90;;;;;;5090382;28;20103;-73
2021/03/27 07:51:43;;;;;;;13.65;8.02;;;5.10;99.90;;;;;;5092543;28;20028;-76
2021/03/27 07:54:34;;;;;;;14.57;8.13;;;5.00;99.90;;;;;;5093259;28;20036;-71
2021/03/27 07:57:18;;;;;;;16.50;8.55;;;5.00;99.90;;;;;;5085414;28;20012;-70
2021/03/27 08:00:09;;;;;;;15.05;7.95;;;5.00;99.90;;;;;;5088012;28;20032;-67
2021/03/27 08:02:37;;;;;;;;;;;5.40;99.90;;;;;;5073567;28;20098;-67
2021/03/27 08:05:24;;;;;;;16.70;7.80;;;5.30;99.90;;;;;;5087989;28;20383;-72
2021/03/27 08:08:07;;;;;;;17.15;8.52;;;5.20;99.90;;;;;;5074022;28;20120;-73
2021/03/27 08:10:45;;;;;;;19.85;9.30;;;5.10;99.90;;;;;;5074072;28;20025;-73
2021/03/27 08:13:30;;;;;;;17.17;8.85;;;5.00;99.90;;;;;;5078730;28;20040;-72
2021/03/27 08:16:18;;;;;;;16.85;8.63;;;5.00;99.90;;;;;;5093661;28;20105;-74
2021/03/27 08:19:17;;;;;;;17.27;9.52;;;5.10;99.90;;;;;;5073881;28;20028;-73
2021/03/27 08:22:09;;;;;;;18.17;10.13;;;5.10;99.90;;;;;;5023494;28;20036;-73
2021/03/27 08:24:50;;;;;;;18.10;9.68;;;5.10;99.90;;;;;;5094333;28;20028;-73
2021/03/27 08:27:41;;;;;;;18.13;9.65;;;5.10;99.90;;;;;;5094036;28;20209;-71
2021/03/27 08:30:40;;;;;;;17.92;9.88;;;5.00;99.90;;;;;;5093852;28;20364;-74
2021/03/27 08:33:27;;;;;;;16.75;9.68;;;5.00;99.90;;;;;;5093350;28;20040;-70
2021/03/27 08:36:13;;;;;;;17.70;10.52;;;5.10;99.90;;;;;;5093938;28;20036;-68
2021/03/27 08:39:09;;;;;;;19.27;9.93;;;5.10;99.90;;;;;;5094213;28;20024;-69
2021/03/27 08:42:01;;;;;;;16.13;9.80;;;5.20;99.90;;;;;;5093643;28;20024;-69
2021/03/27 08:44:51;;;;;;;19.83;10.77;;;5.20;99.90;;;;;;5093969;28;20021;-69
2021/03/27 08:47:59;;;;;;;21.80;10.73;;;5.30;99.90;;;;;;5093386;28;20440;-69
2021/03/27 08:51:03;;;;;;;19.98;10.52;;;5.30;99.90;;;;;;5074201;28;20392;-69
2021/03/27 08:53:37;;;;;;;22.52;10.63;;;5.30;99.90;;;;;;5093739;28;20058;-69
2021/03/27 08:56:19;;;;;;;23.95;11.68;;;5.30;99.90;;;;;;5093662;28;20028;-70
2021/03/27 08:58:53;;;;;;;19.48;10.13;;;5.40;99.90;;;;;;5093673;28;20405;-69
2021/03/27 09:01:31;;;;;;;19.67;10.75;;;5.70;99.90;;;;;;5093820;28;20101;-70
2021/03/27 09:04:11;;;;;;;21.90;11.23;;;5.80;99.90;;;;;;5093551;28;20020;-70
2021/03/27 09:06:45;;;;;;;;;;;6.00;99.90;;;;;;5094102;28;20036;-70
2021/03/27 09:09:26;;;;;;;23.13;10.68;;;6.10;99.90;;;;;;5093324;28;19904;-70
2021/03/27 09:11:59;;;;;;;17.90;10.70;;;6.20;99.90;;;;;;5093394;28;20097;-72
2021/03/27 09:14:47;;;;;;;23.35;11.52;;;6.20;99.90;;;;;;5091206;28;20051;-73
2021/03/27 09:17:50;;;;;;;22.83;10.10;;;6.20;99.90;;;;;;5064073;28;20043;-73
2021/03/27 09:20:19;;;;;;;19.98;9.90;;;6.40;99.90;;;;;;5093187;28;20060;-73
2021/03/27 09:23:11;;;;;;;21.83;10.88;;;6.60;99.90;;;;;;5092074;28;20032;-72
2021/03/27 09:26:02;;;;;;;27.95;11.82;;;6.70;99.90;;;;;;5092931;28;20411;-72
2021/03/27 09:28:46;;;;;;;;;;;6.60;99.90;;;;;;5093782;28;20111;-71
2021/03/27 09:31:33;;;;;;;18.77;9.98;;;6.60;99.90;;;;;;5093256;28;19962;-72
2021/03/27 09:34:01;;;;;;;31.35;12.65;;;6.60;99.90;;;;;;5093193;28;20035;-72
2021/03/27 09:36:52;;;;;;;22.10;11.05;;;6.60;99.90;;;;;;5093311;28;20043;-70
2021/03/27 09:39:27;;;;;;;32.17;14.05;;;6.60;99.90;;;;;;5089613;28;20036;-71
2021/03/27 09:42:20;;;;;;;31.75;13.40;;;6.40;99.90;;;;;;5093293;28;20047;-71
2021/03/27 09:45:00;;;;;;;26.02;12.93;;;6.30;99.90;;;;;;5072837;28;20024;-70
2021/03/27 09:47:26;;;;;;;;;;;6.30;99.90;;;;;;5073252;28;20053;-71
2021/03/27 09:50:04;;;;;;;30.55;14.25;;;6.30;99.90;;;;;;5072800;28;20263;-71
2021/03/27 09:52:35;;;;;;;28.48;12.68;;;6.30;99.90;;;;;;5072400;28;20082;-71
2021/03/27 09:55:34;;;;;;;30.02;12.15;;;6.50;99.90;;;;;;5072721;28;20029;-71
2021/03/27 09:58:29;;;;;;;26.75;12.68;;;6.50;99.90;;;;;;5072989;28;20086;-71
2021/03/27 10:01:11;;;;;;;34.55;12.05;;;6.60;99.90;;;;;;5070925;28;20115;-71
2021/03/27 10:03:51;;;;;;;24.25;11.63;;;6.70;99.90;;;;;;5072634;28;20025;-71
2021/03/27 10:06:36;;;;;;;27.05;12.13;;;6.90;99.90;;;;;;5074528;28;20058;-71
2021/03/27 10:09:11;;;;;;;25.23;11.90;;;7.00;99.90;;;;;;5072523;28;20032;-71
2021/03/27 10:11:40;;;;;;;21.60;11.25;;;7.00;99.90;;;;;;5072514;28;20021;-71
2021/03/27 10:14:23;;;;;;;30.60;11.57;;;6.90;99.90;;;;;;5071801;28;20056;-72
2021/03/27 10:17:10;;;;;;;26.33;12.57;;;7.00;99.90;;;;;;5072243;28;20032;-71
2021/03/27 10:20:20;;;;;;;31.80;12.57;;;7.10;99.90;;;;;;5056488;28;20036;-71
2021/03/27 10:23:04;;;;;;;25.23;11.95;;;7.20;99.90;;;;;;5061393;28;20028;-73
2021/03/27 10:25:35;;;;;;;27.25;11.63;;;7.30;99.90;;;;;;5072297;28;20498;-73
2021/03/27 10:28:27;;;;;;;28.73;12.68;;;7.40;99.90;;;;;;5072325;28;20094;-72
2021/03/27 10:31:23;;;;;;;21.85;11.45;;;7.40;99.90;;;;;;5071740;28;20016;-72
2021/03/27 10:34:01;;;;;;;24.48;10.05;;;7.40;99.90;;;;;;5069476;28;20041;-72
2021/03/27 10:36:40;;;;;;;27.58;11.57;;;7.40;99.90;;;;;;5072114;28;20028;-72
2021/03/27 10:39:27;;;;;;;25.27;11.48;;;7.40;99.90;;;;;;5071974;28;20025;-71
2021/03/27 10:42:00;;;;;;;22.73;10.73;;;7.40;99.90;;;;;;5071856;28;20055;-72
2021/03/27 10:45:14;;;;;;;23.58;11.18;;;7.40;99.90;;;;;;5071663;28;20499;-72
2021/03/27 10:48:04;;;;;;;30.83;13.40;;;7.40;99.90;;;;;;5029416;28;20568;-72
2021/03/27 10:50:43;;;;;;;;;;;7.50;99.90;;;;;;5072296;28;20484;-71
2021/03/27 10:53:26;;;;;;;27.92;11.57;;;7.50;99.90;;;;;;5071605;28;19946;-72
2021/03/27 10:56:20;;;;;;;29.55;12.82;;;7.60;99.90;;;;;;5071741;28;20468;-72
2021/03/27 10:59:12;;;;;;;28.02;12.55;;;7.60;99.90;;;;;;5071645;28;20054;-71
2021/03/27 11:01:46;;;;;;;26.17;12.20;;;7.70;99.90;;;;;;5055526;28;20028;-72
2021/03/27 11:04:29;;;;;;;27.23;12.07;;;7.70;99.90;;;;;;5071787;28;20384;-71
2021/03/27 11:07:10;;;;;;;27.08;12.45;;;7.70;99.90;;;;;;5071590;28;20021;-71
2021/03/27 11:09:58;;;;;;;;;;;7.80;99.90;;;;;;5072262;28;20021;-71
2021/03/27 11:12:37;;;;;;;32.50;11.93;;;7.90;99.90;;;;;;5074030;28;19912;-71
2021/03/27 11:15:20;;;;;;;34.90;13.20;;;7.90;99.90;;;;;;5075207;28;20056;-71
2021/03/27 11:17:51;;;;;;;25.85;14.73;;;7.90;99.90;;;;;;5075645;28;20052;-72
2021/03/27 11:20:36;;;;;;;32.15;13.48;;;7.90;99.90;;;;;;5075244;28;20488;-72
2021/03/27 11:23:29;;;;;;;37.40;16.25;;;7.90;99.90;;;;;;5075430;28;20028;-72
2021/03/27 11:26:23;;;;;;;30.73;12.85;;;7.90;99.90;;;;;;5075364;28;20581;-72
2021/03/27 11:28:58;;;;;;;27.80;13.15;;;8.00;99.90;;;;;;5075258;28;20028;-73
2021/03/27 11:31:38;;;;;;;39.03;15.18;;;8.00;99.90;;;;;;5075127;28;20099;-72
2021/03/27 11:34:28;;;;;;;24.38;11.73;;;8.00;99.90;;;;;;5075225;28;20392;-73
2021/03/27 11:37:18;;;;;;;27.35;12.63;;;8.10;99.90;;;;;;5075038;28;20066;-72
2021/03/27 11:39:50;;;;;;;30.92;14.63;;;8.10;99.90;;;;;;5074915;28;20044;-72
2021/03/27 11:42:34;;;;;;;33.70;13.38;;;8.10;99.90;;;;;;5075084;28;20024;-72
2021/03/27 11:45:26;;;;;;;26.27;13.30;;;8.10;99.90;;;;;;5074964;28;20025;-72
2021/03/27 11:48:17;;;;;;;33.00;13.00;;;8.10;99.90;;;;;;5069010;28;20433;-72
2021/03/27 11:51:10;;;;;;;32.65;14.60;;;8.10;99.90;;;;;;5056870;28;20514;-72
2021/03/27 11:53:44;;;;;;;40.58;14.60;;;8.10;99.90;;;;;;5074628;28;20040;-72
2021/03/27 11:56:45;;;;;;;28.15;13.05;;;8.10;99.90;;;;;;5074941;28;20357;-71
2021/03/27 11:59:42;;;;;;;39.58;16.20;;;8.10;99.90;;;;;;5037076;28;20072;-72
2021/03/27 12:02:33;;;;;;;30.77;13.13;;;8.00;99.90;;;;;;5074732;28;20124;-72
2021/03/27 12:05:25;;;;;;;25.50;12.18;;;8.00;99.90;;;;;;5074457;28;20071;-71
2021/03/27 12:07:57;;;;;;;27.95;13.10;;;8.00;99.90;;;;;;5074672;28;20097;-71
2021/03/27 12:10:28;;;;;;;29.10;13.10;;;8.10;99.90;;;;;;5074293;28;20025;-72
2021/03/27 12:13:13;;;;;;;34.50;14.07;;;8.10;99.90;;;;;;5074283;28;20119;-72
2021/03/27 12:15:53;;;;;;;26.08;11.82;;;8.10;99.90;;;;;;5074292;28;20048;-72
2021/03/27 12:18:40;;;;;;;27.08;11.75;;;8.10;99.90;;;;;;5074431;28;20074;-72
2021/03/27 12:21:18;;;;;;;28.35;11.20;;;8.10;99.90;;;;;;5074474;28;20032;-72
2021/03/27 12:23:53;;;;;;;28.42;11.65;;;8.10;99.90;;;;;;5074334;28;20445;-72
2021/03/27 12:26:56;;;;;;;26.70;11.63;;;8.10;99.90;;;;;;5074052;28;20086;-72
2021/03/27 12:29:50;;;;;;;21.90;10.35;;;8.10;99.90;;;;;;5073889;28;20434;-72
2021/03/27 12:32:34;;;;;;;24.08;11.27;;;8.10;99.90;;;;;;5073751;28;20040;-72
2021/03/27 12:35:03;;;;;;;45.40;12.25;;;8.10;99.90;;;;;;5073912;28;20114;-72
2021/03/27 12:37:38;;;;;;;22.53;11.07;;;8.10;99.90;;;;;;5074132;28;20044;-72
2021/03/27 12:40:26;;;;;;;20.15;10.35;;;8.00;99.90;;;;;;5073835;28;20028;-72
2021/03/27 12:42:58;;;;;;;29.80;11.15;;;7.90;99.90;;;;;;5073920;28;20017;-72
2021/03/27 12:45:37;;;;;;;26.05;10.38;;;7.90;99.90;;;;;;5073601;28;20027;-73
2021/03/27 12:48:05;;;;;;;21.33;9.90;;;7.90;99.90;;;;;;5073820;28;20040;-72
2021/03/27 12:50:55;;;;;;;19.20;10.68;;;7.80;99.90;;;;;;5073926;28;20111;-72
2021/03/27 12:53:47;;;;;;;21.55;10.18;;;7.80;99.90;;;;;;5073475;28;20392;-72
2021/03/27 12:56:41;;;;;;;22.70;9.73;;;7.80;99.90;;;;;;5083590;28;20232;-72
2021/03/27 12:59:18;;;;;;;23.80;11.00;;;7.70;99.90;;;;;;5094024;28;20046;-70
2021/03/27 13:02:19;;;;;;;20.17;9.95;;;7.70;99.90;;;;;;5094064;28;20020;-71
2021/03/27 13:05:23;;;;;;;29.25;10.60;;;7.70;99.90;;;;;;5050094;28;20039;-70
2021/03/27 13:07:58;;;;;;;27.38;10.25;;;7.70;99.90;;;;;;5092880;28;20123;-71
2021/03/27 13:10:48;;;;;;;23.75;10.95;;;7.60;99.90;;;;;;5093448;28;20024;-71
2021/03/27 13:13:33;;;;;;;30.80;10.90;;;7.60;99.90;;;;;;5093454;28;20036;-71
2021/03/27 13:16:17;;;;;;;24.05;9.82;;;7.50;99.90;;;;;;5093291;28;20401;-71
2021/03/27 13:18:55;;;;;;;22.88;10.68;;;7.60;99.90;;;;;;5093466;28;20024;-71
2021/03/27 13:21:32;;;;;;;21.95;10.18;;;7.70;99.90;;;;;;5093161;28;20021;-71
2021/03/27 13:24:13;;;;;;;20.85;10.52;;;7.70;99.90;;;;;;5093425;28;20437;-72
2021/03/27 13:26:41;;;;;;;24.67;9.88;;;7.70;99.90;;;;;;5093321;28;20357;-72
2021/03/27 13:29:34;;;;;;;21.55;10.30;;;8.00;99.90;;;;;;5092734;28;20381;-68
2021/03/27 13:32:25;;;;;;;23.67;10.15;;;7.90;99.90;;;;;;5090469;28;20035;-68
2021/03/27 13:35:01;;;;;;;25.42;10.07;;;7.90;99.90;;;;;;5091417;28;20028;-68
2021/03/27 13:37:39;;;;;;;26.35;10.63;;;7.90;99.90;;;;;;5091934;28;20034;-69
2021/03/27 13:40:20;;;;;;;22.27;9.90;;;7.90;99.90;;;;;;5092478;28;20020;-69
2021/03/27 13:42:55;;;;;;;29.30;10.73;;;7.90;99.90;;;;;;5091850;28;20020;-69
2021/03/27 13:45:39;;;;;;;20.58;8.75;;;7.90;99.90;;;;;;5092902;28;20020;-69
2021/03/27 13:48:43;;;;;;;19.45;8.68;;;7.90;99.90;;;;;;5092874;28;20020;-69
2021/03/27 13:51:11;;;;;;;19.95;9.25;;;7.90;99.90;;;;;;5061318;28;20032;-69
2021/03/27 13:54:03;;;;;;;19.10;9.85;;;7.90;99.90;;;;;;5092702;28;20043;-69
2021/03/27 13:56:51;;;;;;;22.77;9.30;;;7.90;99.90;;;;;;5092754;28;20020;-69
2021/03/27 14:00:04;;;;;;;15.05;8.82;;;7.90;99.90;;;;;;5092759;28;20020;-69
2021/03/27 14:02:43;;;;;;;30.30;10.82;;;8.00;99.90;;;;;;5029263;28;20018;-69
2021/03/27 14:05:42;;;;;;;26.77;10.48;;;8.00;99.90;;;;;;5029526;28;20049;-70
2021/03/27 14:08:30;;;;;;;25.70;10.10;;;7.90;99.90;;;;;;5076252;28;20045;-70
2021/03/27 14:11:04;;;;;;;19.42;10.27;;;7.90;99.90;;;;;;5072359;28;20074;-72
2021/03/27 14:13:44;;;;;;;19.05;10.25;;;7.90;99.90;;;;;;5072323;28;20361;-70
2021/03/27 14:16:16;;;;;;;29.35;10.32;;;7.90;99.90;;;;;;5072225;28;20079;-70
2021/03/27 14:18:47;;;;;;;22.40;9.82;;;7.90;99.90;;;;;;5072192;28;20388;-70
2021/03/27 14:21:31;;;;;;;22.90;10.23;;;7.80;99.90;;;;;;5072297;28;20699;-70
2021/03/27 14:24:36;;;;;;;23.63;11.00;;;7.70;99.90;;;;;;5072415;28;20037;-70
2021/03/27 14:27:39;;;;;;;20.85;10.05;;;7.70;99.90;;;;;;5080209;28;20024;-69
2021/03/27 14:30:42;;;;;;;23.38;10.00;;;7.60;99.90;;;;;;5084070;28;20028;-69
2021/03/27 14:33:26;;;;;;;27.67;12.00;;;7.60;99.90;;;;;;5084374;28;20403;-68
2021/03/27 14:35:56;;;;;;;28.33;12.05;;;7.50;99.90;;;;;;5090855;28;20020;-69
2021/03/27 14:38:42;;;;;;;24.00;12.13;;;7.50;99.90;;;;;;5091506;28;20046;-71
2021/03/27 14:41:58;;;;;;;31.58;11.82;;;7.40;99.90;;;;;;5091734;28;20107;-70
2021/03/27 14:44:30;;;;;;;21.65;11.65;;;7.30;99.90;;;;;;5051948;28;20512;-69
2021/03/27 14:47:07;;;;;;;20.35;11.48;;;7.30;99.90;;;;;;5094108;28;20028;-70
2021/03/27 14:50:07;;;;;;;20.60;12.02;;;7.30;99.90;;;;;;5095523;28;20513;-70
2021/03/27 14:52:34;;;;;;;;;;;7.30;99.90;;;;;;5096273;28;20017;-72
2021/03/27 14:55:27;;;;;;;23.35;11.45;;;7.30;99.90;;;;;;5096738;28;19915;-70
2021/03/27 14:58:11;;;;;;;24.17;11.70;;;7.30;99.90;;;;;;5094629;28;20020;-71
2021/03/27 15:00:41;;;;;;;20.88;10.98;;;7.30;99.90;;;;;;5094853;28;20487;-70
2021/03/27 15:03:25;;;;;;;24.13;12.57;;;7.30;99.90;;;;;;5079524;28;20059;-72
2021/03/27 15:05:55;;;;;;;21.02;11.90;;;7.30;99.90;;;;;;5095641;28;20024;-69
2021/03/27 15:08:42;;;;;;;21.52;11.88;;;7.30;99.90;;;;;;5095579;28;20016;-70
2021/03/27 15:11:40;;;;;;;22.42;11.98;;;7.20;99.90;;;;;;5093614;28;20028;-70
2021/03/27 15:14:21;;;;;;;25.55;12.75;;;7.20;99.90;;;;;;5090455;28;20032;-69
2021/03/27 15:17:08;;;;;;;22.60;12.18;;;7.20;99.90;;;;;;5095571;28;20086;-70
2021/03/27 15:19:42;;;;;;;25.00;13.50;;;7.20;99.90;;;;;;5095328;28;20016;-70
2021/03/27 15:22:23;;;;;;;27.50;14.40;;;7.10;99.90;;;;;;5093631;28;20024;-71
2021/03/27 15:27:54;;;;;;;23.85;12.18;;;7.10;99.90;;;;;;5092863;28;20081;-72
2021/03/27 15:30:50;;;;;;;27.13;14.25;;;7.00;99.90;;;;;;5094743;28;20104;-72
2021/03/27 15:33:34;;;;;;;27.67;13.32;;;7.00;99.90;;;;;;5093502;28;20123;-71
2021/03/27 15:36:07;;;;;;;32.40;14.77;;;6.90;99.90;;;;;;5095587;28;20050;-70
2021/03/27 15:39:02;;;;;;;30.60;15.02;;;6.80;99.90;;;;;;5094655;28;20028;-71
2021/03/27 15:41:48;;;;;;;31.63;14.90;;;6.70;99.90;;;;;;5090625;28;20110;-71
2021/03/27 15:44:19;;;;;;;33.72;15.45;;;6.70;99.90;;;;;;5093878;28;20055;-70
2021/03/27 15:46:55;;;;;;;30.90;15.30;;;6.70;99.90;;;;;;5092909;28;20028;-70
2021/03/27 15:49:34;;;;;;;37.25;16.00;;;6.70;99.90;;;;;;5077399;28;20020;-70
2021/03/27 15:52:27;;;;;;;32.15;15.10;;;6.80;99.90;;;;;;5094348;28;20127;-70
2021/03/27 15:55:07;;;;;;;30.30;15.52;;;6.70;99.90;;;;;;5093243;28;20032;-71
2021/03/27 15:57:33;;;;;;;32.25;15.65;;;6.70;99.90;;;;;;5093094;28;20012;-71
2021/03/27 16:00:14;;;;;;;26.75;15.10;;;6.70;99.90;;;;;;5094422;28;20021;-70
2021/03/27 16:03:01;;;;;;;25.88;13.45;;;6.60;99.90;;;;;;5094456;28;20357;-71
2021/03/27 16:05:31;;;;;;;30.17;15.07;;;6.60;99.90;;;;;;5092424;28;20069;-72
2021/03/27 16:08:01;;;;;;;27.88;14.55;;;6.60;99.90;;;;;;5094670;28;20092;-71
2021/03/27 16:10:34;;;;;;;29.70;14.60;;;6.60;99.90;;;;;;5094486;28;20103;-70
2021/03/27 16:13:09;;;;;;;32.30;15.95;;;6.50;99.90;;;;;;5094082;28;20059;-70
2021/03/27 16:15:50;;;;;;;26.77;14.18;;;6.50;99.90;;;;;;5093830;28;20043;-69
2021/03/27 16:18:36;;;;;;;25.80;13.85;;;6.40;99.90;;;;;;5093640;28;20024;-70
2021/03/27 16:21:26;;;;;;;25.77;13.48;;;6.40;99.90;;;;;;5091694;28;20031;-70
2021/03/27 16:24:15;;;;;;;25.00;13.10;;;6.40;99.90;;;;;;5092582;28;20035;-71
2021/03/27 16:27:16;;;;;;;28.60;13.77;;;6.30;99.90;;;;;;5094092;28;20415;-71
2021/03/27 16:29:59;;;;;;;23.52;13.15;;;6.30;99.90;;;;;;5093732;28;20468;-71
2021/03/27 16:33:06;;;;;;;25.38;13.57;;;6.30;99.90;;;;;;5093908;28;20036;-70
2021/03/27 16:35:37;;;;;;;23.33;13.40;;;6.30;99.90;;;;;;5092362;28;20020;-71
2021/03/27 16:38:24;;;;;;;26.13;13.23;;;6.30;99.90;;;;;;5091560;28;20020;-71
2021/03/27 16:41:12;;;;;;;31.40;14.18;;;6.20;99.90;;;;;;5092113;28;20024;-71
2021/03/27 16:43:52;;;;;;;27.40;13.80;;;6.20;99.90;;;;;;5093772;28;20491;-72
2021/03/27 16:46:20;;;;;;;26.23;13.88;;;6.10;99.90;;;;;;5094133;28;20419;-72
2021/03/27 16:49:01;;;;;;;25.33;14.13;;;6.10;99.90;;;;;;5093795;28;20016;-71
2021/03/27 16:51:48;;;;;;;23.33;14.93;;;6.00;99.90;;;;;;5094109;28;20104;-71
2021/03/27 16:54:32;;;;;;;24.05;13.70;;;6.00;99.90;;;;;;5093364;28;20085;-70
2021/03/27 16:57:10;;;;;;;24.00;13.05;;;6.00;99.90;;;;;;5093410;28;20880;-70
2021/03/27 17:00:10;;;;;;;24.55;13.85;;;5.90;99.90;;;;;;5091912;28;20016;-71
2021/03/27 17:03:06;;;;;;;24.23;13.45;;;5.80;99.90;;;;;;5054860;28;20028;-71
2021/03/27 17:06:08;;;;;;;22.50;13.23;;;5.80;99.90;;;;;;5093602;28;20024;-71
2021/03/27 17:09:04;;;;;;;30.25;15.02;;;5.90;99.90;;;;;;5063979;28;20037;-71
2021/03/27 17:11:59;;;;;;;27.30;14.38;;;5.80;99.90;;;;;;5093657;28;20383;-70
2021/03/27 17:14:40;;;;;;;25.83;14.98;;;5.80;99.90;;;;;;5093292;28;20414;-70
2021/03/27 17:17:15;;;;;;;29.05;15.73;;;5.80;99.90;;;;;;5092965;28;20042;-71
2021/03/27 17:20:06;;;;;;;29.52;15.13;;;5.80;99.90;;;;;;5090890;28;20387;-72
2021/03/27 17:23:02;;;;;;;25.38;13.95;;;5.70;99.90;;;;;;5093520;28;20043;-73
2021/03/27 17:25:59;;;;;;;30.08;15.25;;;5.90;99.90;;;;;;5093115;28;20024;-73
2021/03/27 17:28:41;;;;;;;32.90;16.95;;;6.40;99.90;;;;;;5093216;28;20556;-72
2021/03/27 17:31:22;;;;;;;7.93;3.83;;;6.20;99.90;;;;;;5093496;28;20059;-70
2021/03/27 17:34:03;;;;;;;34.92;16.83;;;6.30;99.90;;;;;;5092864;28;20127;-72
2021/03/27 17:36:56;;;;;;;30.17;15.40;;;7.20;99.90;;;;;;5093040;28;20091;-75
2021/03/27 17:39:54;;;;;;;32.50;17.50;;;6.70;99.90;;;;;;5093036;28;20028;-67
2021/03/27 17:42:32;;;;;;;30.52;16.02;;;6.30;99.90;;;;;;5092420;28;20136;-67
2021/03/27 17:44:58;;;;;;;31.20;17.25;;;6.60;99.90;;;;;;5093068;28;20110;-70
2021/03/27 17:47:32;;;;;;;35.30;17.65;;;6.60;99.90;;;;;;5092452;28;20574;-70
2021/03/27 17:50:10;;;;;;;33.95;17.70;;;6.40;99.90;;;;;;5092465;28;20546;-69
2021/03/27 17:52:40;;;;;;;36.72;18.05;;;6.10;99.90;;;;;;5090149;28;20039;-71
2021/03/27 17:55:09;;;;;;;34.63;18.73;;;5.90;99.90;;;;;;5090129;28;20032;-70
2021/03/27 17:57:45;;;;;;;35.58;18.20;;;5.80;99.90;;;;;;5092096;28;20725;-70
2021/03/27 18:00:39;;;;;;;35.38;17.75;;;5.60;99.90;;;;;;5091529;28;20530;-69
2021/03/27 18:03:32;;;;;;;38.50;19.67;;;5.50;99.90;;;;;;5063574;28;20032;-69
2021/03/27 18:06:07;;;;;;;36.08;18.60;;;5.50;99.90;;;;;;5090731;28;20055;-70
2021/03/27 18:09:04;;;;;;;41.08;20.35;;;5.50;99.90;;;;;;5092430;28;20518;-70
2021/03/27 18:11:54;;;;;;;37.05;19.67;;;5.50;99.90;;;;;;5079726;28;20036;-70
2021/03/27 18:14:49;;;;;;;39.17;20.95;;;5.40;99.90;;;;;;5092296;28;20093;-69
2021/03/27 18:17:33;;;;;;;37.28;19.30;;;5.30;99.90;;;;;;5092349;28;20506;-70
2021/03/27 18:20:09;;;;;;;36.53;19.42;;;5.30;99.90;;;;;;5092181;28;20028;-71
2021/03/27 18:22:44;;;;;;;42.40;21.13;;;5.30;99.90;;;;;;5092155;28;20024;-70
2021/03/27 18:25:34;;;;;;;39.58;21.00;;;5.30;99.90;;;;;;5074012;28;20445;-69
2021/03/27 18:28:23;;;;;;;40.80;19.83;;;5.40;99.90;;;;;;5092405;28;20031;-70